ADDS METAR Data INFO
IDs: Format: Raw Decoded Include TAF

Data at: 1751 UTC 21 Oct 2017

K1F0 211735Z AUTO 22009G17KT 10SM SCT024 BKN033 OVC055 25/17 A2990 RMK AO2 TSNO
K1F0 211715Z AUTO 21010G14KT 10SM 25/17 A2991 RMK AO2 TSNO
K1F0 211650Z AUTO 22009G14KT 10SM BKN022 BKN030 OVC048 23/17 A2992 RMK AO2 TSNO
K1F0 211635Z AUTO 23008G14KT 10SM OVC022 23/17 A2992 RMK AO2 TSNO
K1F0 211615Z AUTO 22010G16KT 10SM OVC020 23/17 A2992 RMK AO2 TSNO
K1F0 211555Z AUTO 19010G16KT 10SM OVC020 23/17 A2991 RMK AO2 TSNO
K1F0 211535Z AUTO 19009KT 10SM OVC020 23/18 A2992 RMK AO2 TSNO
K1F0 211515Z AUTO 20009G14KT 10SM BKN022 OVC027 22/17 A2992 RMK AO2 TSNO
K1F0 211455Z AUTO 19007KT 10SM BKN020 OVC030 22/18 A2992 RMK AO2 TSNO
K1F0 211435Z AUTO 20004KT 10SM BKN015 OVC022 22/18 A2992 RMK AO2 TSNO
K1F0 211415Z AUTO 20006KT 10SM OVC013 21/18 A2992 RMK AO2 TSNO
K1F0 211355Z AUTO 20005KT 10SM OVC013 21/18 A2991 RMK AO2 TSNO
K1F0 211335Z AUTO 20004KT 10SM OVC015 21/18 A2991 RMK AO2 TSNO
K1F0 211315Z AUTO 20003KT 10SM OVC015 21/18 A2990 RMK AO2 TSNO
K1F0 211255Z AUTO 20005KT 10SM BKN017 OVC028 21/18 A2989 RMK AO2 TSNO
K1F0 211235Z AUTO 20007KT 10SM BKN011 BKN017 OVC026 21/18 A2989 RMK AO2 TSNO
K1F0 211215Z AUTO 19006KT 10SM OVC011 21/18 A2989 RMK AO2 TSNO
K1F0 211155Z AUTO 20006KT 170V230 10SM OVC011 21/18 A2989 RMK AO2 TSNO
K1F0 211135Z AUTO 20007KT 10SM OVC011 21/18 A2988 RMK AO2 TSNO
K1F0 211115Z AUTO 20005KT 10SM OVC013 21/18 A2987 RMK AO2 TSNO
K1F0 211055Z AUTO 19009KT 10SM OVC013 21/18 A2986 RMK AO2 TSNO
K1F0 211035Z AUTO 20007G14KT 10SM OVC013 21/18 A2986 RMK AO2 TSNO
K1F0 211015Z AUTO 19007G15KT 10SM OVC013 21/18 A2986 RMK AO2 TSNO
K1F0 210955Z AUTO 19010KT 10SM OVC013 21/18 A2986 RMK AO2 TSNO
K1F0 210935Z AUTO 19008KT 10SM BKN013 OVC018 21/17 A2986 RMK AO2 TSNO
K1F0 210915Z AUTO 19010G15KT 10SM OVC013 21/17 A2987 RMK AO2 TSNO
K1F0 210855Z AUTO 19009KT 10SM OVC015 21/17 A2987 RMK AO2 TSNO
K1F0 210835Z AUTO 19005KT 10SM OVC017 21/17 A2988 RMK AO2 TSNO
K1F0 210815Z AUTO 20006KT 10SM OVC017 21/17 A2989 RMK AO2 TSNO
K1F0 210755Z AUTO 19006KT 10SM OVC017 21/17 A2989 RMK AO2 TSNO
K1F0 210735Z AUTO 19007KT 10SM OVC015 21/17 A2990 RMK AO2 TSNO
K1F0 210715Z AUTO 18008KT 10SM OVC015 21/17 A2990 RMK AO2 TSNO
K1F0 210655Z AUTO 20006KT 10SM OVC015 21/17 A2991 RMK AO2 TSNO
K1F0 210635Z AUTO 20006KT 10SM OVC017 21/17 A2991 RMK AO2 TSNO
K1F0 210615Z AUTO 19006KT 10SM OVC017 21/17 A2991 RMK AO2 TSNO
K1F0 210555Z AUTO 19009KT 170V230 10SM OVC017 21/17 A2991 RMK AO2 TSNO
K1F0 210535Z AUTO 20011KT 10SM OVC019 21/17 A2991 RMK AO2 TSNO
K1F0 210515Z AUTO 20010KT 10SM OVC019 21/17 A2991 RMK AO2 TSNO
K1F0 210455Z AUTO 20009G17KT 10SM OVC019 22/17 A2991 RMK AO2 TSNO
K1F0 210435Z AUTO 19010G16KT 10SM SCT021 BKN046 BKN050 21/16 A2991 RMK AO2 TSNO
K1F0 210415Z AUTO 20008G14KT 10SM SCT048 22/16 A2991 RMK AO2 TSNO
K1F0 210355Z AUTO 20010G16KT 10SM SCT050 22/16 A2991 RMK AO2 TSNO
K1F0 210335Z AUTO 20010G19KT 10SM CLR 22/16 A2991 RMK AO2 TSNO
K1F0 210315Z AUTO 20009G18KT 10SM SCT044 22/16 A2990 RMK AO2 TSNO
K1F0 210255Z AUTO 20011G20KT 10SM SCT038 SCT044 22/16 A2990 RMK AO2 TSNO
K1F0 210235Z AUTO 19010G16KT 10SM SCT038 23/16 A2990 RMK AO2 TSNO
K1F0 210215Z AUTO 19011G19KT 10SM SCT033 SCT043 SCT055 23/16 A2990 RMK AO2 TSNO
K1F0 210155Z AUTO 20010G14KT 10SM SCT033 BKN043 BKN055 23/17 A2990 RMK AO2 TSNO
K1F0 210135Z AUTO 19008KT 10SM SCT043 SCT048 BKN055 23/17 A2990 RMK AO2 TSNO
K1F0 210115Z AUTO 19004KT 10SM SCT045 BKN065 23/17 A2990 RMK AO2 TSNO
K1F0 210055Z AUTO 19003KT 10SM SCT038 SCT050 BKN055 23/17 A2990 RMK AO2 TSNO
K1F0 210035Z AUTO 20004KT 10SM BKN036 OVC050 23/17 A2990 RMK AO2 TSNO
K1F0 210015Z AUTO 19004KT 10SM BKN036 BKN045 BKN050 24/17 A2990 RMK AO2 TSNO
K1F0 202355Z AUTO 20005KT 10SM SCT041 SCT047 24/16 A2990 RMK AO2 TSNO
K1F0 202335Z AUTO 20007KT 10SM SCT045 25/16 A2989 RMK AO2 TSNO
K1F0 202315Z AUTO 20009G15KT 10SM BKN039 BKN044 25/16 A2990 RMK AO2 TSNO
K1F0 202255Z AUTO 20011G17KT 10SM SCT037 BKN043 25/16 A2990 RMK AO2 TSNO
K1F0 202235Z AUTO 21009G15KT 10SM CLR 25/16 A2990 RMK AO2 TSNO
K1F0 202215Z AUTO 20010KT 10SM CLR 26/15 A2989 RMK AO2 TSNO
K1F0 202155Z AUTO 19010G17KT 10SM SCT039 26/15 A2989 RMK AO2 TSNO
K1F0 202135Z AUTO 20013G20KT 10SM SCT041 26/16 A2990 RMK AO2 TSNO
K1F0 202115Z AUTO 20015G22KT 10SM CLR 26/15 A2991 RMK AO2 TSNO
K1F0 202055Z AUTO 19014G21KT 10SM CLR 26/16 A2990 RMK AO2 TSNO
K1F0 202035Z AUTO 19015G24KT 10SM CLR 26/15 A2990 RMK AO2 TSNO
K1F0 202015Z AUTO 19017G21KT 10SM SCT040 SCT048 BKN055 26/15 A2991 RMK AO2 TSNO
K1F0 201955Z AUTO 20010G18KT 10SM SCT041 BKN048 OVC070 26/15 A2994 RMK AO2 TSNO
K1F0 201935Z AUTO 19011G21KT 10SM BKN039 BKN046 OVC065 26/15 A2995 RMK AO2 TSNO
K1F0 201915Z AUTO 21013G18KT 10SM SCT039 27/15 A2996 RMK AO2 TSNO
K1F0 201855Z AUTO 19011G17KT 10SM SCT070 26/14 A2997 RMK AO2 TSNO
K1F0 201835Z AUTO 19015G19KT 10SM BKN070 26/13 A2999 RMK AO2 TSNO
K1F0 201815Z AUTO 20010G19KT 10SM SCT060 BKN070 26/13 A3000 RMK AO2 TSNO
K1F0 201755Z AUTO 19010G18KT 10SM BKN060 26/13 A3001 RMK AO2 TSNO
K1F0 201735Z AUTO 19009G18KT 10SM BKN060 25/14 A3003 RMK AO2 TSNO
K1F0 201715Z AUTO 19014G19KT 170V230 10SM SCT034 BKN060 25/14 A3005 RMK AO2 TSNO
K1F0 201655Z AUTO 20008G15KT 170V230 10SM SCT060 BKN070 BKN080 23/14 A3005 RMK AO2 TSNO
K1F0 201635Z AUTO 18009KT 10SM SCT060 BKN070 BKN080 22/14 A3006 RMK AO2 TSNO
K1F0 201615Z AUTO 20007KT 170V230 10SM OVC050 22/13 A3007 RMK AO2 TSNO
K1F0 201555Z AUTO 19008G15KT 10SM SCT033 OVC050 21/13 A3008 RMK AO2 TSNO
K1F0 201535Z AUTO 20010G15KT 10SM BKN049 21/13 A3008 RMK AO2 TSNO
K1F0 201515Z AUTO 19009G16KT 10SM SCT047 20/13 A3009 RMK AO2 TSNO
K1F0 201455Z AUTO 19008KT 10SM SCT055 SCT080 19/13 A3009 RMK AO2 TSNO
K1F0 201435Z AUTO 19007KT 170V230 10SM SCT065 BKN075 18/13 A3010 RMK AO2 TSNO
K1F0 201415Z AUTO 19009KT 10SM BKN065 18/13 A3010 RMK AO2 TSNO
K1F0 201355Z AUTO 19006KT 10SM SCT022 SCT065 17/12 A3010 RMK AO2 TSNO
K1F0 201335Z AUTO 19005KT 10SM CLR 17/13 A3009 RMK AO2 TSNO
K1F0 201315Z AUTO 00000KT 10SM SCT055 SCT065 15/12 A3008 RMK AO2 TSNO
K1F0 201255Z AUTO 00000KT 10SM SCT055 BKN065 BKN080 14/12 A3008 RMK AO2 TSNO
K1F0 201235Z AUTO 00000KT 10SM BKN055 OVC065 15/12 A3009 RMK AO2 TSNO
K1F0 201215Z AUTO 00000KT 10SM SCT055 BKN065 15/12 A3009 RMK AO2 TSNO
K1F0 201155Z AUTO 00000KT 10SM SCT065 16/12 A3008 RMK AO2 TSNO
K1F0 201135Z AUTO 00000KT 10SM CLR 16/12 A3008 RMK AO2 TSNO
K1F0 201115Z AUTO 00000KT 10SM CLR 16/12 A3008 RMK AO2 TSNO
K1F0 201055Z AUTO 18005KT 10SM CLR 16/12 A3008 RMK AO2 TSNO
K1F0 201035Z AUTO 18006KT 10SM CLR 16/12 A3008 RMK AO2 TSNO
K1F0 201015Z AUTO 19004KT 10SM CLR 16/12 A3008 RMK AO2 TSNO
K1F0 200955Z AUTO 19003KT 10SM CLR 17/12 A3009 RMK AO2 TSNO
K1F0 200935Z AUTO 20003KT 10SM CLR 16/12 A3009 RMK AO2 TSNO
K1F0 200915Z AUTO 19004KT 10SM CLR 16/12 A3009 RMK AO2 TSNO
K1F0 200855Z AUTO 19003KT 10SM CLR 16/12 A3009 RMK AO2 TSNO
K1F0 200835Z AUTO 21005KT 10SM CLR 17/12 A3010 RMK AO2 TSNO
K1F0 200815Z AUTO 20004KT 10SM CLR 16/12 A3010 RMK AO2 TSNO
K1F0 200755Z AUTO 18004KT 10SM CLR 16/11 A3010 RMK AO2 TSNO
K1F0 200735Z AUTO 17004KT 10SM CLR 16/11 A3010 RMK AO2 TSNO
K1F0 200715Z AUTO 17003KT 10SM CLR 16/11 A3009 RMK AO2 TSNO
K1F0 200655Z AUTO 00000KT 10SM CLR 16/11 A3010 RMK AO2 TSNO
K1F0 200635Z AUTO 00000KT 10SM CLR 16/11 A3010 RMK AO2 TSNO
K1F0 200615Z AUTO 16003KT 10SM CLR 16/11 A3009 RMK AO2 TSNO
K1F0 200555Z AUTO 00000KT 10SM CLR 16/11 A3009 RMK AO2 TSNO